Time;durP1;ratioP1;P1;durP2;ratioP2;P2;SDS_P1;SDS_P2;PMS_P1;PMS_P2;Temp;Humidity;BMP_temperature;BMP_pressure;BME280_temperature;BME280_humidity;BME280_pressure;Samples;Min_cycle;Max_cycle;Signal;HPM_P1;HPM_P2
2021/08/06 00:00:57;;;;;;;8.15;4.40;;;;;;;17.50;68.82;100236.97;5036840;28;20041;-80
2021/08/06 00:03:22;;;;;;;5.35;3.65;;;;;;;17.54;68.92;100240.09;5036473;28;20040;-81
2021/08/06 00:05:48;;;;;;;5.72;4.00;;;;;;;17.56;68.77;100244.25;5036100;28;20479;-80
2021/08/06 00:08:13;;;;;;;7.63;3.97;;;;;;;17.56;69.30;100241.56;5036075;28;20112;-80
2021/08/06 00:10:38;;;;;;;5.07;3.70;;;;;;;17.57;68.70;100248.63;5035912;28;20121;-79
2021/08/06 00:13:04;;;;;;;7.45;3.75;;;;;;;17.58;68.60;100247.56;5036330;28;20489;-79
2021/08/06 00:15:29;;;;;;;4.50;3.80;;;;;;;17.60;68.29;100248.22;5036354;28;20033;-79
2021/08/06 00:17:55;;;;;;;5.13;3.90;;;;;;;17.68;67.67;100241.00;5036098;28;20084;-79
2021/08/06 00:20:20;;;;;;;5.75;3.65;;;;;;;17.73;68.51;100243.91;5035885;28;20030;-80
2021/08/06 00:22:45;;;;;;;8.93;3.55;;;;;;;17.72;69.13;100242.25;5035769;28;20393;-81
2021/08/06 00:25:11;;;;;;;9.73;3.63;;;;;;;17.68;69.35;100238.31;5035790;28;20044;-79
2021/08/06 00:27:36;;;;;;;4.55;3.30;;;;;;;17.60;70.50;100241.97;5018037;28;20106;-79
2021/08/06 00:30:03;;;;;;;4.47;3.63;;;;;;;17.47;72.84;100244.63;5017882;28;20432;-78
2021/08/06 00:32:28;;;;;;;8.27;3.78;;;;;;;17.27;75.22;100239.94;5035371;28;20033;-76
2021/08/06 00:34:54;;;;;;;6.60;3.80;;;;;;;17.05;75.86;100234.66;5035639;28;20366;-77
2021/08/06 00:37:19;;;;;;;4.72;4.03;;;;;;;16.86;76.24;100227.25;5036033;28;20128;-77
2021/08/06 00:39:44;;;;;;;5.60;4.05;;;;;;;16.68;77.26;100230.41;5035494;28;20037;-77
2021/08/06 00:42:10;;;;;;;7.22;3.83;;;;;;;16.55;78.86;100231.13;5035537;28;20025;-78
2021/08/06 00:44:35;;;;;;;5.63;4.10;;;;;;;16.41;79.56;100230.19;5035686;28;20038;-78
2021/08/06 00:47:01;;;;;;;8.50;3.83;;;;;;;16.32;81.40;100228.66;5035520;28;20032;-78
2021/08/06 00:49:26;;;;;;;7.43;4.10;;;;;;;16.25;80.30;100223.22;5017699;28;20033;-79
2021/08/06 00:51:52;;;;;;;4.25;3.65;;;;;;;16.15;81.50;100230.75;5035427;28;20037;-78
2021/08/06 00:54:18;;;;;;;4.85;4.13;;;;;;;16.09;81.88;100237.69;5035122;28;20037;-78
2021/08/06 00:56:48;;;;;;;11.35;5.25;;;;;;;16.00;84.52;100244.19;5035338;28;20021;-78
2021/08/06 00:59:13;;;;;;;7.47;4.75;;;;;;;15.85;84.25;100245.09;5035308;28;20035;-81
2021/08/06 01:01:39;;;;;;;10.10;5.85;;;;;;;15.76;86.49;100243.47;5035123;28;20466;-83
2021/08/06 01:04:12;;;;;;;8.00;5.40;;;;;;;15.65;87.66;100243.97;5035195;28;20025;-82
2021/08/06 01:06:47;;;;;;;10.50;5.55;;;;;;;15.58;87.54;100235.00;5035368;28;20050;-82
2021/08/06 01:09:15;;;;;;;10.85;6.13;;;;;;;15.48;88.55;100224.56;5018038;28;20413;-81
2021/08/06 01:11:45;;;;;;;9.02;6.65;;;;;;;15.44;89.14;100226.78;5034859;28;20108;-83
2021/08/06 01:14:15;;;;;;;9.07;6.28;;;;;;;15.38;89.24;100226.72;5017414;28;20034;-83
2021/08/06 01:16:43;;;;;;;10.80;6.20;;;;;;;15.37;89.69;100225.03;5034781;28;20030;-82
2021/08/06 01:19:24;;;;;;;10.07;6.18;;;;;;;15.31;89.74;100223.91;5034781;28;20033;-82
2021/08/06 01:22:00;;;;;;;12.25;6.47;;;;;;;15.30;89.97;100216.88;5035526;28;20029;-82
2021/08/06 01:24:28;;;;;;;11.95;7.30;;;;;;;15.27;90.21;100209.22;5018367;28;20101;-81
2021/08/06 01:26:55;;;;;;;12.02;7.47;;;;;;;15.24;90.56;100206.91;5035193;28;20489;-81
2021/08/06 01:29:21;;;;;;;14.32;7.35;;;;;;;15.22;90.82;100204.41;5034762;28;20103;-81
2021/08/06 01:31:48;;;;;;;10.75;7.32;;;;;;;15.20;90.91;100209.16;5033903;28;20033;-81
2021/08/06 01:34:14;;;;;;;10.68;7.00;;;;;;;15.18;91.18;100200.44;5034515;28;20075;-81
2021/08/06 01:36:39;;;;;;;10.15;6.40;;;;;;;15.16;91.33;100194.44;5034595;28;20427;-82
2021/08/06 01:39:05;;;;;;;12.98;6.60;;;;;;;15.14;91.04;100191.94;5034569;28;20521;-80
2021/08/06 01:41:42;;;;;;;11.02;7.65;;;;;;;15.12;91.35;100187.78;5034387;28;20390;-81
2021/08/06 01:44:17;;;;;;;12.75;7.38;;;;;;;15.12;91.78;100187.78;5035094;28;20037;-82
2021/08/06 01:46:53;;;;;;;13.57;7.05;;;;;;;15.11;91.96;100183.47;5034924;28;20112;-82
2021/08/06 01:49:35;;;;;;;13.07;6.40;;;;;;;15.12;91.43;100182.44;5034355;28;20621;-83
2021/08/06 01:52:08;;;;;;;9.07;6.07;;;;;;;15.13;91.55;100174.19;5034282;28;20037;-83
2021/08/06 01:54:36;;;;;;;9.88;6.43;;;;;;;15.14;91.42;100178.56;5016734;28;20385;-82
2021/08/06 01:57:04;;;;;;;7.93;5.13;;;;;;;15.13;91.30;100176.88;5034069;28;20033;-81
2021/08/06 01:59:30;;;;;;;9.32;6.45;;;;;;;15.16;91.68;100178.38;5034671;28;20108;-83
2021/08/06 02:01:57;;;;;;;7.95;4.97;;;;;;;15.19;91.40;100179.84;5033949;28;20041;-83
2021/08/06 02:04:24;;;;;;;9.27;5.55;;;;;;;15.21;91.37;100178.66;5034385;28;20343;-82
2021/08/06 02:06:51;;;;;;;7.63;6.35;;;;;;;15.22;91.17;100179.47;5033748;28;20033;-83
2021/08/06 02:09:20;;;;;;;8.55;5.72;;;;;;;15.25;91.69;100168.38;5033151;28;20041;-81
2021/08/06 02:11:47;;;;;;;6.60;5.03;;;;;;;15.26;90.94;100170.88;5033025;28;20108;-84
2021/08/06 02:14:15;;;;;;;7.97;5.80;;;;;;;15.26;91.48;100175.41;5032758;28;20478;-82
2021/08/06 02:16:42;;;;;;;7.00;5.18;;;;;;;15.25;91.33;100176.44;5032697;28;20075;-83
2021/08/06 02:19:09;;;;;;;6.72;5.00;;;;;;;15.25;91.32;100171.06;5033086;28;20036;-83
2021/08/06 02:21:37;;;;;;;9.18;5.38;;;;;;;15.26;91.49;100173.56;5033100;28;20108;-83
2021/08/06 02:24:09;;;;;;;12.30;5.65;;;;;;;15.26;91.05;100168.19;5033297;28;20032;-84
2021/08/06 02:26:36;;;;;;;5.50;4.82;;;;;;;15.28;91.62;100176.88;5032952;28;20103;-84
2021/08/06 02:29:05;;;;;;;9.27;5.40;;;;;;;15.27;91.16;100166.34;5032882;28;20040;-85
2021/08/06 02:31:31;;;;;;;7.57;5.43;;;;;;;15.27;91.34;100166.34;5015413;28;20030;-86
2021/08/06 02:33:57;;;;;;;7.22;5.78;;;;;;;15.28;91.91;100159.97;5032393;28;20033;-84
2021/08/06 02:36:22;;;;;;;6.15;4.95;;;;;;;15.26;91.90;100168.19;5033345;28;20507;-82
2021/08/06 02:38:48;;;;;;;9.02;5.13;;;;;;;15.28;91.95;100171.53;5032655;28;20037;-84
2021/08/06 02:41:13;;;;;;;8.98;4.53;;;;;;;15.33;91.73;100163.75;5032779;28;20033;-80
2021/08/06 02:43:40;;;;;;;10.85;4.28;;;;;;;15.37;91.40;100168.75;5031136;28;20076;-82
2021/08/06 02:46:06;;;;;;;6.68;4.57;;;;;;;15.40;91.82;100160.34;5032971;28;20462;-81
2021/08/06 02:48:31;;;;;;;6.03;4.15;;;;;;;15.41;91.24;100167.38;5032320;28;20044;-82
2021/08/06 02:50:56;;;;;;;5.78;4.45;;;;;;;15.45;91.48;100163.28;5032376;28;20030;-81
2021/08/06 02:53:22;;;;;;;6.82;4.68;;;;;;;15.47;91.59;100175.47;5032559;28;20029;-82
2021/08/06 02:55:47;;;;;;;7.53;4.47;;;;;;;15.48;91.69;100168.25;5032764;28;20033;-81
2021/08/06 02:58:12;;;;;;;7.82;4.65;;;;;;;15.48;91.32;100170.94;5032638;28;20532;-81
2021/08/06 03:00:38;;;;;;;11.98;4.85;;;;;;;15.50;91.61;100168.91;5033014;28;20041;-81
2021/08/06 03:03:03;;;;;;;5.90;4.70;;;;;;;15.53;90.40;100165.84;5014694;28;20370;-81
2021/08/06 03:05:29;;;;;;;8.10;5.30;;;;;;;15.53;91.38;100171.22;4994092;28;1099095;-80
2021/08/06 03:07:54;;;;;;;7.80;4.97;;;;;;;15.52;91.31;100167.72;5033617;28;20502;-79
2021/08/06 03:10:21;;;;;;;8.55;5.38;;;;;;;15.52;91.06;100170.41;5033386;28;20065;-80
2021/08/06 03:12:47;;;;;;;8.73;4.38;;;;;;;15.55;90.50;100171.84;5033180;28;20049;-80
2021/08/06 03:15:13;;;;;;;6.10;4.47;;;;;;;15.53;90.70;100165.84;5033485;28;20521;-81
2021/08/06 03:17:41;;;;;;;6.95;5.03;;;;;;;15.52;91.29;100162.34;5033477;28;20389;-80
2021/08/06 03:20:13;;;;;;;9.60;4.50;;;;;;;15.52;90.75;100161.50;5033252;28;20040;-80
2021/08/06 03:22:39;;;;;;;;;;;;;;;15.49;90.55;100160.03;5034153;28;20025;-80
2021/08/06 03:25:09;;;;;;;6.43;4.50;;;;;;;15.46;90.59;100151.53;5032643;28;20326;-80
2021/08/06 03:27:35;;;;;;;6.30;4.50;;;;;;;15.42;90.97;100155.59;5033052;28;20033;-81
2021/08/06 03:30:01;;;;;;;5.57;4.20;;;;;;;15.37;90.93;100158.03;5032948;28;20025;-80
2021/08/06 03:32:26;;;;;;;6.30;4.43;;;;;;;15.35;90.83;100158.22;5032767;28;20098;-80
2021/08/06 03:34:52;;;;;;;7.43;5.07;;;;;;;15.34;90.96;100168.09;5033126;28;20187;-79
2021/08/06 03:37:17;;;;;;;5.97;4.80;;;;;;;15.33;90.66;100160.22;5032611;28;20037;-81
2021/08/06 03:39:43;;;;;;;5.82;5.22;;;;;;;15.31;90.84;100164.97;5033049;28;20034;-80
2021/08/06 03:42:08;;;;;;;8.75;5.43;;;;;;;15.28;90.87;100163.47;5033195;28;20030;-80
2021/08/06 03:44:34;;;;;;;10.13;6.35;;;;;;;15.27;91.39;100167.19;5033402;28;20038;-80
2021/08/06 03:46:59;;;;;;;9.20;6.10;;;;;;;15.23;91.92;100162.41;5032582;28;20064;-81
2021/08/06 03:49:24;;;;;;;12.85;6.68;;;;;;;15.21;91.95;100157.22;5033671;28;20056;-80
2021/08/06 03:51:50;;;;;;;9.85;6.55;;;;;;;15.21;91.45;100159.91;5033461;28;20045;-82
2021/08/06 03:54:15;;;;;;;8.20;7.03;;;;;;;15.20;91.68;100162.75;5033243;28;20501;-80
2021/08/06 03:56:41;;;;;;;9.15;7.13;;;;;;;15.20;91.92;100160.91;5036577;28;20037;-81
2021/08/06 03:59:06;;;;;;;8.40;6.97;;;;;;;15.21;91.75;100154.53;5018353;28;20508;-79
2021/08/06 04:01:31;;;;;;;12.32;7.35;;;;;;;15.23;91.54;100157.03;5037075;28;20037;-82
2021/08/06 04:03:57;;;;;;;9.35;7.57;;;;;;;15.23;91.28;100159.72;5036386;28;20039;-81
2021/08/06 04:06:22;;;;;;;11.60;8.00;;;;;;;15.23;91.18;100163.22;5036179;28;20049;-82
2021/08/06 04:08:47;;;;;;;12.32;8.23;;;;;;;15.24;90.98;100161.34;5018647;28;20440;-81
2021/08/06 04:11:13;;;;;;;14.52;7.68;;;;;;;15.28;91.00;100168.00;5018644;28;20113;-81
2021/08/06 04:13:38;;;;;;;10.32;8.48;;;;;;;15.30;91.15;100169.50;5035866;28;20458;-81
2021/08/06 04:16:04;;;;;;;11.05;8.57;;;;;;;15.31;91.25;100168.47;5018723;28;20029;-80
2021/08/06 04:18:29;;;;;;;15.00;9.18;;;;;;;15.34;91.68;100165.41;5018349;28;20040;-80
2021/08/06 04:20:57;;;;;;;11.10;8.32;;;;;;;15.37;91.16;100172.25;5035743;28;20033;-81
2021/08/06 04:23:22;;;;;;;16.20;8.00;;;;;;;15.38;91.17;100170.41;5036217;28;20422;-81
2021/08/06 04:25:48;;;;;;;10.18;8.02;;;;;;;15.39;91.00;100169.38;5035623;28;20119;-81
2021/08/06 04:28:13;;;;;;;13.68;8.05;;;;;;;15.40;90.85;100173.72;5017795;28;20034;-82
2021/08/06 04:30:38;;;;;;;10.85;8.10;;;;;;;15.39;90.95;100169.38;5035527;28;20087;-82
2021/08/06 04:33:04;;;;;;;11.52;8.50;;;;;;;15.37;91.43;100171.44;5017844;28;20033;-80
2021/08/06 04:35:29;;;;;;;16.83;9.07;;;;;;;15.34;91.29;100172.63;5018385;28;20030;-80
2021/08/06 04:37:56;;;;;;;13.60;8.82;;;;;;;15.29;91.52;100167.00;5035591;28;20033;-81
2021/08/06 04:40:21;;;;;;;11.15;9.48;;;;;;;15.27;91.98;100169.03;5035357;28;20482;-80
2021/08/06 04:42:47;;;;;;;15.13;9.00;;;;;;;15.24;92.07;100174.75;5017857;28;20040;-81
2021/08/06 04:45:13;;;;;;;11.38;8.13;;;;;;;15.19;91.70;100177.19;5035350;28;20029;-81
2021/08/06 04:47:47;;;;;;;15.32;8.65;;;;;;;15.18;91.77;100176.31;5001493;28;20037;-80
2021/08/06 04:50:15;;;;;;;13.10;7.93;;;;;;;15.18;91.82;100176.31;5036064;28;20036;-81
2021/08/06 04:52:41;;;;;;;11.70;8.18;;;;;;;15.19;91.96;100172.63;5017580;28;20037;-80
2021/08/06 04:55:07;;;;;;;16.55;8.45;;;;;;;15.21;91.93;100180.50;5017802;28;20347;-80
2021/08/06 04:57:32;;;;;;;11.23;8.48;;;;;;;15.24;91.77;100178.28;5035187;28;20029;-81
2021/08/06 04:59:58;;;;;;;11.68;7.57;;;;;;;15.26;91.23;100184.28;5035263;28;20095;-81
2021/08/06 05:02:23;;;;;;;14.55;9.00;;;;;;;15.26;91.14;100180.78;5019904;28;20374;-82
2021/08/06 05:04:48;;;;;;;11.57;8.13;;;;;;;15.28;91.48;100178.72;5038646;28;20053;-80
2021/08/06 05:07:18;;;;;;;9.63;7.18;;;;;;;15.30;91.38;100185.56;5033820;28;20037;-81
2021/08/06 05:09:44;;;;;;;13.88;7.13;;;;;;;15.34;91.22;100181.50;5019744;28;20040;-80
2021/08/06 05:12:10;;;;;;;11.20;7.30;;;;;;;15.36;90.48;100172.44;5017054;28;20116;-81
2021/08/06 05:14:35;;;;;;;12.20;7.68;;;;;;;15.37;90.78;100177.63;5035386;28;20109;-81
2021/08/06 05:17:00;;;;;;;10.38;6.38;;;;;;;15.38;90.06;100165.88;5016774;28;20496;-82
2021/08/06 05:19:26;;;;;;;12.23;6.45;;;;;;;15.37;89.61;100174.09;5034696;28;20037;-79
2021/08/06 05:21:51;;;;;;;12.35;7.18;;;;;;;15.34;90.01;100181.50;5034804;28;20083;-79
2021/08/06 05:24:16;;;;;;;11.55;7.60;;;;;;;15.32;90.39;100178.19;5017239;28;20087;-80
2021/08/06 05:26:42;;;;;;;10.90;7.07;;;;;;;15.32;90.68;100174.69;5034746;28;20087;-80
2021/08/06 05:29:07;;;;;;;15.20;7.10;;;;;;;15.34;90.22;100183.34;5016907;28;20064;-80
2021/08/06 05:31:32;;;;;;;14.20;7.20;;;;;;;15.36;90.26;100178.66;5035230;28;20037;-80
2021/08/06 05:33:58;;;;;;;9.02;6.38;;;;;;;15.36;90.55;100177.81;5016936;28;20053;-79
2021/08/06 05:36:23;;;;;;;8.18;5.55;;;;;;;15.44;89.77;100180.41;5034042;28;20120;-78
2021/08/06 05:38:48;;;;;;;12.68;5.82;;;;;;;15.52;89.71;100189.16;5034179;28;20069;-78
2021/08/06 05:41:14;;;;;;;9.65;5.63;;;;;;;15.59;89.66;100177.69;5034807;28;20088;-79
2021/08/06 05:43:39;;;;;;;12.05;6.57;;;;;;;15.66;89.47;100189.31;5034643;28;20062;-78
2021/08/06 05:46:05;;;;;;;12.13;5.90;;;;;;;15.74;87.75;100191.06;5034002;28;20112;-79
2021/08/06 05:48:30;;;;;;;9.98;6.05;;;;;;;15.84;88.06;100189.75;5034273;28;20488;-78
2021/08/06 05:50:55;;;;;;;7.18;5.55;;;;;;;15.91;87.72;100186.31;5034194;28;20040;-78
2021/08/06 05:53:21;;;;;;;11.00;5.72;;;;;;;15.96;86.75;100187.41;5034288;28;20076;-77
2021/08/06 05:55:47;;;;;;;11.07;5.60;;;;;;;16.02;86.90;100188.50;5034053;28;20363;-77
2021/08/06 05:58:12;;;;;;;13.25;6.38;;;;;;;16.03;87.62;100188.31;5033661;28;20375;-78
2021/08/06 06:00:38;;;;;;;10.95;6.20;;;;;;;16.03;87.06;100193.69;5034035;28;20363;-77
2021/08/06 06:03:03;;;;;;;10.43;6.05;;;;;;;16.13;86.64;100189.84;5034555;28;20034;-77
2021/08/06 06:05:28;;;;;;;11.38;6.38;;;;;;;16.23;86.53;100190.38;5033713;28;20050;-76
2021/08/06 06:07:54;;;;;;;11.38;6.18;;;;;;;16.29;86.58;100202.19;5033966;28;20059;-77
2021/08/06 06:10:21;;;;;;;8.68;5.85;;;;;;;16.30;85.43;100199.31;5034031;28;20060;-77
2021/08/06 06:12:47;;;;;;;10.10;5.68;;;;;;;16.34;84.62;100195.19;5033784;28;20026;-77
2021/08/06 06:15:13;;;;;;;10.48;6.10;;;;;;;16.37;85.91;100202.88;5033353;28;20101;-77
2021/08/06 06:17:38;;;;;;;13.50;6.13;;;;;;;16.39;85.02;100210.72;5033579;28;20033;-77
2021/08/06 06:20:05;;;;;;;14.98;5.03;;;;;;;16.39;83.38;100200.00;5033741;28;20367;-77
2021/08/06 06:22:31;;;;;;;12.93;5.95;;;;;;;16.35;84.63;100212.16;5033273;28;20112;-78
2021/08/06 06:24:56;;;;;;;21.27;6.07;;;;;;;16.29;84.81;100213.75;5034333;28;20146;-79
2021/08/06 06:27:21;;;;;;;11.13;5.03;;;;;;;16.30;84.19;100206.53;5033533;28;20541;-76
2021/08/06 06:29:47;;;;;;;10.20;5.28;;;;;;;16.39;84.39;100218.78;5033427;28;20038;-76
2021/08/06 06:32:12;;;;;;;15.95;5.28;;;;;;;16.40;84.06;100215.09;5033219;28;20455;-77
2021/08/06 06:34:40;;;;;;;8.68;4.53;;;;;;;16.44;83.00;100210.19;5033441;28;20041;-76
2021/08/06 06:37:05;;;;;;;12.73;5.20;;;;;;;16.49;82.56;100216.59;5016125;28;20033;-77
2021/08/06 06:39:31;;;;;;;15.43;6.45;;;;;;;16.56;83.66;100214.00;5016238;28;20456;-76
2021/08/06 06:41:56;;;;;;;11.38;4.63;;;;;;;16.55;82.28;100210.47;5033292;28;20200;-75
2021/08/06 06:44:21;;;;;;;14.88;4.75;;;;;;;16.70;82.38;100207.69;5015470;28;20042;-76
2021/08/06 06:46:47;;;;;;;8.27;4.05;;;;;;;16.86;81.59;100221.88;5033049;28;20532;-75
2021/08/06 06:49:12;;;;;;;9.63;4.00;;;;;;;16.95;80.54;100218.03;5015584;28;20048;-81
2021/08/06 06:51:38;;;;;;;13.52;3.95;;;;;;;17.19;79.50;100215.94;5032915;28;20120;-77
2021/08/06 06:54:03;;;;;;;12.27;4.35;;;;;;;17.24;78.83;100213.47;5033033;28;20029;-79
2021/08/06 06:56:29;;;;;;;65.70;9.70;;;;;;;17.16;80.11;100206.38;5032894;28;20045;-80
2021/08/06 06:58:54;;;;;;;23.27;6.00;;;;;;;17.13;79.81;100222.09;5032954;28;20040;-79
2021/08/06 07:01:20;;;;;;;15.10;5.45;;;;;;;17.09;80.20;100218.94;5033192;28;20029;-79
2021/08/06 07:03:45;;;;;;;15.38;5.45;;;;;;;17.08;80.02;100220.81;5033367;28;20175;-80
2021/08/06 07:06:10;;;;;;;9.23;4.35;;;;;;;17.21;78.70;100222.78;5014823;28;20054;-77
2021/08/06 07:08:38;;;;;;;17.08;5.03;;;;;;;17.43;77.37;100230.75;5032863;28;20433;-78
2021/08/06 07:11:04;;;;;;;17.20;5.10;;;;;;;17.66;77.97;100227.75;5016302;28;20034;-77
2021/08/06 07:13:30;;;;;;;25.92;5.35;;;;;;;17.93;75.03;100222.50;4999139;28;20045;-76
2021/08/06 07:15:56;;;;;;;12.77;4.30;;;;;;;18.03;75.66;100227.50;5032829;28;20034;-76
2021/08/06 07:18:21;;;;;;;14.07;4.03;;;;;;;18.20;74.69;100227.94;5032685;28;20037;-75
2021/08/06 07:20:46;;;;;;;11.68;4.68;;;;;;;18.17;74.23;100222.94;5032718;28;20037;-74
2021/08/06 07:23:12;;;;;;;14.40;4.72;;;;;;;18.25;74.76;100228.97;5033287;28;20061;-79
2021/08/06 07:25:40;;;;;;;53.85;7.28;;;;;;;18.18;74.63;100211.16;5014832;28;20033;-78
2021/08/06 07:28:05;;;;;;;20.33;5.03;;;;;;;18.25;73.44;100228.16;5032689;28;20038;-76
2021/08/06 07:30:31;;;;;;;11.43;3.92;;;;;;;18.39;73.98;100215.53;5034636;28;20034;-74
2021/08/06 07:32:56;;;;;;;8.90;3.60;;;;;;;18.76;71.52;100213.28;5036758;28;20042;-76
2021/08/06 07:35:23;;;;;;;9.00;3.80;;;;;;;18.98;73.83;100224.69;5036025;28;20051;-75
2021/08/06 07:37:49;;;;;;;7.25;3.40;;;;;;;19.29;70.81;100220.50;5036400;28;20422;-74
2021/08/06 07:40:16;;;;;;;6.10;3.22;;;;;;;19.42;71.19;100219.59;5018625;28;20060;-75
2021/08/06 07:42:42;;;;;;;10.93;3.25;;;;;;;19.70;71.48;100217.41;5036284;28;20092;-75
2021/08/06 07:45:08;;;;;;;10.05;3.55;;;;;;;19.87;69.50;100227.75;5036104;28;20041;-69
2021/08/06 07:47:33;;;;;;;19.58;4.82;;;;;;;19.85;68.04;100227.97;5035959;28;20037;-69
2021/08/06 07:50:03;;;;;;;9.90;3.40;;;;;;;19.74;67.69;100225.94;5036338;28;20512;-79
2021/08/06 07:52:29;;;;;;;11.95;3.35;;;;;;;19.55;69.03;100216.88;5035995;28;20099;-77
2021/08/06 07:54:54;;;;;;;5.78;3.75;;;;;;;19.45;70.32;100214.63;5036111;28;20461;-77
2021/08/06 07:57:19;;;;;;;8.85;3.38;;;;;;;19.60;68.40;100217.06;5036244;28;20036;-80
2021/08/06 07:59:45;;;;;;;9.85;3.67;;;;;;;19.65;68.42;100219.94;5036969;28;20463;-75
2021/08/06 08:02:10;;;;;;;8.77;4.15;;;;;;;19.48;70.23;100221.44;5035869;28;20056;-73
2021/08/06 08:04:36;;;;;;;4.88;3.10;;;;;;;19.15;68.13;100235.84;5018120;28;20478;-73
2021/08/06 08:07:02;;;;;;;45.40;5.25;;;;;;;19.07;69.74;100223.44;5036761;28;20086;-77
2021/08/06 08:09:28;;;;;;;7.60;3.47;;;;;;;19.08;70.66;100226.94;5035867;28;20112;-77
2021/08/06 08:11:53;;;;;;;7.88;3.35;;;;;;;19.13;69.42;100229.84;5036298;28;20492;-75
2021/08/06 08:14:18;;;;;;;7.95;3.40;;;;;;;19.20;69.65;100230.66;5035833;28;20107;-75
2021/08/06 08:16:44;;;;;;;9.38;3.20;;;;;;;19.23;68.58;100221.31;5035747;28;20034;-76
2021/08/06 08:19:09;;;;;;;10.77;2.83;;;;;;;19.32;66.94;100231.66;5035610;28;20038;-75
2021/08/06 08:21:35;;;;;;;8.38;3.17;;;;;;;19.35;67.41;100231.25;5035201;28;20044;-74
2021/08/06 08:24:00;;;;;;;10.48;3.53;;;;;;;19.43;67.41;100224.78;5035791;28;20071;-77
2021/08/06 08:26:26;;;;;;;8.60;3.47;;;;;;;19.83;67.93;100226.53;5035111;28;20048;-73
2021/08/06 08:28:51;;;;;;;5.25;2.97;;;;;;;20.45;66.17;100229.47;5018328;28;20144;-75
2021/08/06 08:31:17;;;;;;;7.60;3.75;;;;;;;20.93;64.30;100223.50;5017549;28;20370;-77
2021/08/06 08:33:43;;;;;;;5.45;3.25;;;;;;;21.34;61.88;100217.69;5034813;28;20454;-75
2021/08/06 08:36:09;;;;;;;9.95;3.08;;;;;;;21.66;59.24;100219.22;5017979;28;20444;-71
2021/08/06 08:38:34;;;;;;;8.25;2.70;;;;;;;21.84;57.29;100226.47;5034961;28;20124;-73
2021/08/06 08:41:00;;;;;;;8.40;3.00;;;;;;;21.34;59.44;100213.09;5017334;28;20053;-72
2021/08/06 08:43:26;;;;;;;16.02;3.58;;;;;;;21.08;62.08;100217.75;5017095;28;20167;-71
2021/08/06 08:45:55;;;;;;;5.55;2.72;;;;;;;20.74;61.79;100224.50;5035061;28;20036;-75
2021/08/06 08:48:21;;;;;;;7.20;2.78;;;;;;;20.44;62.82;100236.75;5035496;28;20025;-73
2021/08/06 08:50:51;;;;;;;6.75;2.40;;;;;;;20.44;62.09;100236.75;5034810;28;20033;-73
2021/08/06 08:53:16;;;;;;;14.90;3.03;;;;;;;20.37;64.93;100233.28;5034891;28;20045;-73
2021/08/06 08:55:41;;;;;;;17.33;3.20;;;;;;;20.17;64.97;100227.16;5016807;28;20045;-73
2021/08/06 08:58:07;;;;;;;7.63;2.55;;;;;;;19.95;64.01;100245.59;5034383;28;20064;-72
2021/08/06 09:00:34;;;;;;;3.85;2.25;;;;;;;19.71;63.60;100234.44;5034600;28;20041;-72
2021/08/06 09:03:00;;;;;;;11.75;2.92;;;;;;;19.76;65.50;100231.09;5034684;28;20033;-72
2021/08/06 09:05:26;;;;;;;7.20;2.80;;;;;;;19.88;64.64;100242.91;5013435;28;20501;-72
2021/08/06 09:07:53;;;;;;;4.65;2.35;;;;;;;19.72;62.92;100245.03;5014892;28;20064;-73
2021/08/06 09:10:25;;;;;;;7.85;2.45;;;;;;;19.64;63.86;100241.75;5015567;28;20133;-75
2021/08/06 09:12:59;;;;;;;6.88;2.65;;;;;;;19.66;65.27;100232.41;5014937;28;20026;-76
2021/08/06 09:15:49;;;;;;;7.47;2.95;;;;;;;20.74;61.89;100249.66;5014731;28;20052;-74
2021/08/06 09:18:27;;;;;;;11.45;2.42;;;;;;;22.12;58.56;100243.19;5015136;28;20371;-75
2021/08/06 09:21:16;;;;;;;17.10;3.05;;;;;;;23.41;55.91;100244.44;5014544;28;20041;-73
2021/08/06 09:23:47;;;;;;;3.28;1.70;;;;;;;23.74;51.89;100240.22;5007856;28;20497;-72
2021/08/06 09:26:32;;;;;;;6.57;1.92;;;;;;;23.30;51.67;100248.00;5014921;28;20034;-74
2021/08/06 09:29:02;;;;;;;5.82;1.80;;;;;;;22.60;56.07;100253.13;5014372;28;20115;-72
2021/08/06 09:31:29;;;;;;;5.53;2.10;;;;;;;21.79;57.18;100247.16;5014434;28;20030;-73
2021/08/06 09:34:18;;;;;;;4.00;1.73;;;;;;;21.54;58.30;100247.25;5014606;28;20033;-75
2021/08/06 09:37:02;;;;;;;4.50;2.03;;;;;;;21.05;59.52;100257.91;5014176;28;20073;-76
2021/08/06 09:39:32;;;;;;;10.27;2.75;;;;;;;20.61;60.71;100247.84;5014773;28;20030;-76
2021/08/06 09:41:58;;;;;;;7.20;2.00;;;;;;;20.41;60.14;100252.59;5014276;28;20061;-76
2021/08/06 09:44:27;;;;;;;6.78;2.38;;;;;;;19.87;63.89;100258.28;5012988;28;20061;-77
2021/08/06 09:46:53;;;;;;;5.60;2.55;;;;;;;19.49;67.63;100259.00;5014002;28;20030;-76
2021/08/06 09:49:20;;;;;;;5.07;2.38;;;;;;;19.11;69.84;100251.63;5012907;28;20041;-74
2021/08/06 09:51:51;;;;;;;8.02;2.45;;;;;;;19.21;69.45;100248.50;5013611;28;20470;-74
2021/08/06 09:54:28;;;;;;;6.32;2.10;;;;;;;19.43;67.23;100253.66;5013127;28;20099;-78
2021/08/06 09:57:07;;;;;;;5.57;2.20;;;;;;;19.63;68.56;100253.56;5013529;28;20120;-76
2021/08/06 09:59:34;;;;;;;3.05;1.83;;;;;;;19.93;67.72;100258.47;5014274;28;20034;-74
2021/08/06 10:02:19;;;;;;;6.32;2.17;;;;;;;20.17;66.36;100256.88;5013842;28;20179;-80
2021/08/06 10:04:56;;;;;;;4.25;1.90;;;;;;;20.40;65.40;100250.94;5018120;28;20057;-80
2021/08/06 10:07:24;;;;;;;5.72;1.70;;;;;;;20.54;62.89;100257.06;5033525;28;20095;-78
2021/08/06 10:09:50;;;;;;;13.57;2.00;;;;;;;20.41;64.28;100250.72;5033528;28;20049;-80
2021/08/06 10:12:16;;;;;;;9.02;2.13;;;;;;;20.40;64.03;100246.34;5033907;28;20040;-80
2021/08/06 10:14:41;;;;;;;10.82;2.10;;;;;;;20.26;63.49;100247.50;5033781;28;20030;-79
2021/08/06 10:17:07;;;;;;;29.00;3.85;;;;;;;20.03;63.44;100245.31;5034058;28;20040;-79
2021/08/06 10:19:33;;;;;;;5.13;1.90;;;;;;;19.62;64.01;100251.94;5033849;28;20045;-78
2021/08/06 10:21:59;;;;;;;6.57;2.20;;;;;;;19.79;67.29;100250.41;5015974;28;20488;-79
2021/08/06 10:24:25;;;;;;;7.40;2.08;;;;;;;20.75;63.34;100256.72;5033706;28;20029;-79
2021/08/06 10:26:51;;;;;;;5.15;1.80;;;;;;;21.89;60.74;100263.69;5033414;28;20036;-79
2021/08/06 10:29:20;;;;;;;3.75;1.90;;;;;;;23.16;56.54;100242.81;5033562;28;20030;-80
2021/08/06 10:32:15;;;;;;;7.63;1.45;;;;;;;22.79;56.09;100243.00;5033530;28;20021;-80
2021/08/06 10:35:02;;;;;;;7.50;1.65;;;;;;;22.21;57.15;100241.78;5034543;28;20036;-79
2021/08/06 10:37:50;;;;;;;4.50;1.55;;;;;;;21.85;60.22;100238.13;5034175;28;20037;-79
2021/08/06 10:40:34;;;;;;;11.18;1.90;;;;;;;22.18;59.57;100250.38;5034165;28;20040;-79
2021/08/06 10:43:08;;;;;;;2.67;1.10;;;;;;;22.71;56.16;100246.88;5033433;28;20038;-78
2021/08/06 10:45:46;;;;;;;3.60;1.10;;;;;;;22.96;54.49;100245.88;5033729;28;20470;-79
2021/08/06 10:48:30;;;;;;;4.85;1.15;;;;;;;22.95;54.54;100236.06;5033488;28;20037;-80
2021/08/06 10:51:14;;;;;;;2.72;1.33;;;;;;;23.47;55.90;100235.34;5015623;28;20029;-81
2021/08/06 10:53:44;;;;;;;8.30;1.40;;;;;;;23.87;53.15;100244.56;5033971;28;20038;-80
2021/08/06 10:56:15;;;;;;;5.55;1.30;;;;;;;23.94;53.68;100254.25;5033558;28;20095;-80
2021/08/06 10:58:47;;;;;;;4.22;1.20;;;;;;;23.81;53.37;100242.78;5033333;28;20033;-81
2021/08/06 11:01:24;;;;;;;6.88;1.42;;;;;;;23.36;52.79;100274.16;5033527;28;20064;-80
2021/08/06 11:03:53;;;;;;;2.40;1.13;;;;;;;22.83;55.67;100249.63;5033239;28;20115;-81
2021/08/06 11:06:37;;;;;;;1.92;1.10;;;;;;;21.73;57.78;100251.59;5036874;28;20061;-82
2021/08/06 11:09:07;;;;;;;1.95;1.38;;;;;;;20.95;64.47;100270.06;5037386;28;20029;-80
2021/08/06 11:11:43;;;;;;;3.72;1.90;;;;;;;20.36;65.56;100266.75;5037308;28;20084;-80
2021/08/06 11:14:11;;;;;;;3.08;1.90;;;;;;;20.50;65.95;100264.78;5019368;28;20497;-79
2021/08/06 11:17:10;;;;;;;4.00;2.33;;;;;;;21.48;62.56;100255.19;5037723;28;20030;-78
2021/08/06 11:19:36;;;;;;;2.60;1.65;;;;;;;22.71;56.69;100251.50;5037158;28;20041;-83
2021/08/06 11:22:06;;;;;;;4.20;1.67;;;;;;;22.76;55.60;100253.50;5037078;28;20037;-77
2021/08/06 11:24:43;;;;;;;4.55;1.40;;;;;;;22.71;55.94;100243.38;5037422;28;20029;-80